Time;durP1;ratioP1;P1;durP2;ratioP2;P2;SDS_P1;SDS_P2;PMS_P1;PMS_P2;Temp;Humidity;BMP_temperature;BMP_pressure;BME280_temperature;BME280_humidity;BME280_pressure;Samples;Min_cycle;Max_cycle;Signal;HPM_P1;HPM_P2
2023/03/21 00:00:18;;;;;;;200.11;78.44;;;;;;;11.93;69.69;99531.06;2503712;27;20268;-79
2023/03/21 00:00:29;;;;;;;206.00;82.53;;;;;;;11.92;69.26;99524.13;349912;28;1421;-79
2023/03/21 00:00:39;;;;;;;214.68;84.00;;;;;;;11.93;69.68;99533.69;347871;28;1331;-80
2023/03/21 00:00:57;;;;;;;216.97;85.77;;;;;;;11.93;70.76;99529.28;350343;28;950;-80
2023/03/21 00:01:09;;;;;;;207.15;83.57;;;;;;;11.95;70.88;99526.59;350247;28;1337;-80
2023/03/21 00:01:20;;;;;;;206.07;82.78;;;;;;;11.95;70.36;99526.59;350262;28;1413;-79
2023/03/21 00:01:30;;;;;;;207.68;83.22;;;;;;;11.94;71.18;99530.16;348832;28;1397;-80
2023/03/21 00:01:41;;;;;;;212.47;85.33;;;;;;;11.92;70.70;99521.50;351564;28;1245;-80
2023/03/21 00:01:52;;;;;;;213.80;86.75;;;;;;;11.95;71.26;99526.59;350265;28;968;-79
2023/03/21 00:02:02;;;;;;;211.85;85.75;;;;;;;11.95;70.79;99531.84;350461;28;840;-80
2023/03/21 00:02:13;;;;;;;207.00;83.47;;;;;;;11.95;70.18;99527.44;350313;28;1425;-80
2023/03/21 00:02:23;;;;;;;204.52;82.50;;;;;;;11.94;69.70;99525.75;351891;28;1245;-81
2023/03/21 00:02:34;;;;;;;209.13;82.28;;;;;;;11.94;69.58;99522.28;348891;28;1356;-80
2023/03/21 00:02:45;;;;;;;215.83;84.40;;;;;;;11.95;69.42;99531.84;349299;28;852;-81
2023/03/21 00:02:55;;;;;;;217.70;85.28;;;;;;;11.95;69.80;99529.22;349143;28;1186;-80
2023/03/21 00:03:06;;;;;;;215.18;85.75;;;;;;;11.98;70.32;99536.94;349975;28;1316;-81
2023/03/21 00:03:16;;;;;;;217.57;85.10;;;;;;;11.96;70.57;99523.06;351832;28;1337;-80
2023/03/21 00:03:27;;;;;;;216.55;84.35;;;;;;;11.94;70.53;99523.13;348899;28;1316;-81
2023/03/21 00:03:37;;;;;;;217.38;84.25;;;;;;;11.96;71.09;99528.31;350332;28;1369;-80
2023/03/21 00:03:50;;;;;;;212.10;85.23;;;;;;;11.94;70.66;99524.91;348842;28;1317;-80
2023/03/21 00:04:01;;;;;;;214.15;86.93;;;;;;;11.94;70.31;99531.00;350054;28;1358;-80
2023/03/21 00:04:11;;;;;;;218.57;86.97;;;;;;;11.92;69.95;99524.97;350271;28;940;-80
2023/03/21 00:04:22;;;;;;;223.40;86.40;;;;;;;11.91;70.58;99525.88;348716;28;1252;-80
2023/03/21 00:04:33;;;;;;;230.32;86.93;;;;;;;11.90;69.97;99523.34;346091;28;1358;-79
2023/03/21 00:04:43;;;;;;;230.27;87.30;;;;;;;11.93;69.26;99525.81;350208;28;1192;-79
2023/03/21 00:04:54;;;;;;;229.77;87.25;;;;;;;11.89;69.66;99516.41;347337;28;1346;-79
2023/03/21 00:05:04;;;;;;;228.33;87.80;;;;;;;11.89;69.46;99512.00;345064;28;1353;-79
2023/03/21 00:05:15;;;;;;;226.45;86.00;;;;;;;11.91;68.61;99525.03;344912;28;892;-79
2023/03/21 00:05:25;;;;;;;229.18;85.65;;;;;;;11.89;68.67;99513.78;345547;28;1228;-80
2023/03/21 00:05:44;;;;;;;230.20;85.90;;;;;;;11.91;68.19;99517.19;346472;28;1199;-81
2023/03/21 00:05:55;;;;;;;222.02;84.95;;;;;;;11.85;68.46;99514.84;346022;28;1327;-80
2023/03/21 00:06:10;;;;;;;220.25;83.70;;;;;;;11.89;68.85;99524.25;343391;28;1076;-80
2023/03/21 00:06:21;;;;;;;213.13;81.88;;;;;;;11.88;69.18;99519.94;342252;28;908;-80
2023/03/21 00:06:32;;;;;;;213.05;82.05;;;;;;;11.89;69.60;99517.25;342361;28;916;-80
2023/03/21 00:06:42;;;;;;;221.25;84.60;;;;;;;11.88;68.94;99519.94;347297;28;1344;-80
2023/03/21 00:06:54;;;;;;;225.80;86.17;;;;;;;11.85;68.65;99512.22;343366;28;1189;-80
2023/03/21 00:07:04;;;;;;;226.93;86.75;;;;;;;11.89;69.08;99516.41;339415;29;1499;-80
2023/03/21 00:07:15;;;;;;;224.57;87.23;;;;;;;11.89;69.67;99519.03;341818;28;1333;-80
2023/03/21 00:07:25;;;;;;;224.50;87.68;;;;;;;11.87;69.11;99518.25;342181;28;1361;-81
2023/03/21 00:07:35;;;;;;;227.50;88.40;;;;;;;11.87;69.00;99515.63;340819;28;1359;-81
2023/03/21 00:07:46;;;;;;;231.15;87.53;;;;;;;11.85;69.54;99514.84;345121;28;1463;-81
2023/03/21 00:07:57;;;;;;;237.77;89.70;;;;;;;11.85;69.45;99509.59;341483;28;1327;-81
2023/03/21 00:08:07;;;;;;;236.02;89.68;;;;;;;11.85;69.49;99512.22;337756;28;1260;-80
2023/03/21 00:08:19;;;;;;;237.20;90.40;;;;;;;11.86;69.47;99513.91;342314;28;1200;-80
2023/03/21 00:08:30;;;;;;;242.93;89.82;;;;;;;11.83;69.18;99507.03;340592;28;1516;-80
2023/03/21 00:08:41;;;;;;;242.90;89.80;;;;;;;11.84;69.05;99506.13;339932;28;1402;-80
2023/03/21 00:08:51;;;;;;;248.45;90.60;;;;;;;11.86;69.31;99516.53;340775;29;1233;-81
2023/03/21 00:09:02;;;;;;;236.03;88.30;;;;;;;11.85;69.43;99517.47;340952;28;1317;-81
2023/03/21 00:09:13;;;;;;;226.98;86.22;;;;;;;11.87;69.13;99513.84;339706;29;1920;-81
2023/03/21 00:09:24;;;;;;;223.37;85.33;;;;;;;11.84;68.91;99511.38;338312;29;1227;-81
2023/03/21 00:09:35;;;;;;;219.48;83.18;;;;;;;11.84;69.40;99510.53;338103;29;1553;-81
2023/03/21 00:09:45;;;;;;;222.23;84.00;;;;;;;11.84;69.58;99515.75;335522;29;1374;-81
2023/03/21 00:09:57;;;;;;;226.43;84.85;;;;;;;11.84;70.27;99505.28;335317;29;1227;-80
2023/03/21 00:10:08;;;;;;;236.43;88.90;;;;;;;11.84;71.76;99516.63;337495;28;1410;-81
2023/03/21 00:10:19;;;;;;;241.00;90.55;;;;;;;11.82;71.83;99507.13;338190;29;929;-81
2023/03/21 00:10:31;;;;;;;245.90;92.15;;;;;;;11.82;72.68;99510.59;338923;28;1272;-80
2023/03/21 00:10:43;;;;;;;238.55;89.50;;;;;;;11.82;72.66;99515.00;336939;29;1790;-80
2023/03/21 00:10:57;;;;;;;236.35;88.93;;;;;;;11.82;71.93;99505.34;333228;29;1674;-81
2023/03/21 00:11:08;;;;;;;236.30;88.60;;;;;;;11.81;71.70;99513.28;331768;29;1715;-79
2023/03/21 00:11:20;;;;;;;237.75;88.57;;;;;;;11.81;72.17;99513.28;334141;29;1021;-79
2023/03/21 00:11:31;;;;;;;224.05;85.03;;;;;;;11.81;71.46;99505.41;330271;29;1584;-79
2023/03/21 00:11:41;;;;;;;220.25;84.68;;;;;;;11.78;71.12;99509.03;329727;29;1225;-80
2023/03/21 00:11:55;;;;;;;219.70;84.43;;;;;;;11.80;70.35;99507.19;331852;29;1358;-79
2023/03/21 00:12:06;;;;;;;228.38;85.82;;;;;;;11.78;70.46;99510.81;330559;29;1177;-81
2023/03/21 00:12:19;;;;;;;235.20;85.95;;;;;;;11.80;69.88;99512.44;331929;29;1289;-81
2023/03/21 00:12:31;;;;;;;232.90;85.88;;;;;;;11.80;69.48;99512.44;325606;30;1335;-81
2023/03/21 00:12:41;;;;;;;233.90;87.40;;;;;;;11.78;70.28;99502.94;323735;30;2088;-80
2023/03/21 00:12:57;;;;;;;233.50;87.60;;;;;;;11.81;70.27;99508.88;321628;30;2100;-81
2023/03/21 00:13:07;;;;;;;231.75;88.88;;;;;;;11.85;71.40;99514.84;318271;30;4815;-80
2023/03/21 00:13:18;;;;;;;229.73;88.27;;;;;;;11.87;71.23;99508.59;319332;31;1288;-80
2023/03/21 00:13:31;;;;;;;230.18;87.93;;;;;;;11.88;70.57;99509.44;315470;30;2720;-80
2023/03/21 00:13:42;;;;;;;236.13;88.55;;;;;;;11.87;70.28;99513.00;314679;31;1678;-81
2023/03/21 00:14:01;;;;;;;242.68;89.90;;;;;;;11.86;70.31;99500.81;316659;30;1313;-80
2023/03/21 00:14:17;;;;;;;237.15;88.85;;;;;;;11.89;69.87;99508.53;321480;30;5671;-79
2023/03/21 00:14:29;;;;;;;228.15;85.72;;;;;;;11.88;69.32;99510.31;318416;30;1834;-80
2023/03/21 00:14:40;;;;;;;243.63;89.40;;;;;;;11.86;69.47;99503.44;314617;31;2198;-81
2023/03/21 00:14:52;;;;;;;250.00;92.93;;;;;;;11.87;69.61;99513.00;311907;31;1524;-80
2023/03/21 00:15:07;;;;;;;250.82;94.95;;;;;;;11.86;69.27;99506.06;310789;31;950;-80
2023/03/21 00:15:17;;;;;;;239.52;90.40;;;;;;;11.89;69.12;99516.41;305221;32;1498;-80
2023/03/21 00:15:28;;;;;;;232.35;87.35;;;;;;;11.88;68.96;99506.84;305701;32;2717;-80
2023/03/21 00:15:49;;;;;;;237.43;88.18;;;;;;;11.88;69.24;99509.44;301122;32;2417;-82
2023/03/21 00:16:14;;;;;;;237.02;88.35;;;;;;;11.83;68.69;99506.19;298376;32;2105;-81
2023/03/21 00:16:25;;;;;;;237.02;89.15;;;;;;;11.84;68.80;99502.66;296809;33;2336;-80
2023/03/21 00:16:36;;;;;;;235.07;88.03;;;;;;;11.83;68.79;99508.81;295122;33;903;-80
2023/03/21 00:16:49;;;;;;;221.90;84.63;;;;;;;11.83;69.93;99511.44;292253;33;903;-81
2023/03/21 00:17:00;;;;;;;234.95;89.18;;;;;;;11.82;69.34;99505.34;292145;33;3460;-82
2023/03/21 00:17:11;;;;;;;246.38;91.82;;;;;;;11.87;69.22;99505.13;290224;33;3309;-82
2023/03/21 00:17:23;;;;;;;250.75;92.38;;;;;;;11.82;68.81;99505.34;288204;34;4370;-79
2023/03/21 00:17:34;;;;;;;256.00;94.80;;;;;;;11.82;68.47;99504.50;283633;34;936;-81
2023/03/21 00:17:49;;;;;;;251.35;92.45;;;;;;;11.79;68.41;99499.41;280269;34;3999;-80
2023/03/21 00:18:10;;;;;;;257.27;91.47;;;;;;;11.81;69.03;99508.03;280803;35;3669;-82
2023/03/21 00:18:21;;;;;;;246.25;88.03;;;;;;;11.82;69.65;99509.75;280015;35;1405;-81
2023/03/21 00:18:35;;;;;;;243.07;89.03;;;;;;;11.82;70.02;99504.50;278122;35;1349;-79
2023/03/21 00:18:47;;;;;;;242.50;90.15;;;;;;;11.82;70.85;99499.25;276832;35;3709;-80
2023/03/21 00:18:58;;;;;;;252.05;94.25;;;;;;;11.83;70.91;99508.81;274666;35;3608;-80
2023/03/21 00:19:09;;;;;;;253.75;94.88;;;;;;;11.83;70.81;99508.81;271140;35;4872;-80
2023/03/21 00:19:23;;;;;;;261.08;98.20;;;;;;;11.83;71.20;99506.19;268869;36;1541;-81
2023/03/21 00:19:37;;;;;;;250.60;93.80;;;;;;;11.81;71.22;99505.41;269647;36;1424;-80
2023/03/21 00:19:47;;;;;;;247.32;90.68;;;;;;;11.78;69.68;99503.78;268879;36;1399;-80
2023/03/21 00:19:59;;;;;;;244.98;91.18;;;;;;;11.75;69.27;99495.19;266488;36;6636;-79
2023/03/21 00:20:13;;;;;;;245.55;91.43;;;;;;;11.74;69.49;99491.72;265317;36;5631;-80
2023/03/21 00:20:24;;;;;;;248.77;92.75;;;;;;;11.77;69.61;99499.47;263519;37;4175;-79
2023/03/21 00:20:36;;;;;;;247.83;92.87;;;;;;;11.77;70.17;99499.47;261595;37;1370;-80
2023/03/21 00:21:01;;;;;;;247.95;93.88;;;;;;;11.83;70.36;99506.19;256328;38;1380;-80
2023/03/21 00:22:43;;;;;;;198.02;76.97;;;;;;;11.77;69.30;99501.25;2502703;27;20275;-79
2023/03/21 00:22:54;;;;;;;202.43;79.53;;;;;;;11.78;69.76;99502.94;351556;28;1324;-80
2023/03/21 00:23:04;;;;;;;210.23;83.55;;;;;;;11.77;70.20;99496.00;350211;28;1452;-79
2023/03/21 00:23:15;;;;;;;217.30;85.85;;;;;;;11.77;70.01;99501.25;347496;28;1328;-78
2023/03/21 00:23:26;;;;;;;223.73;86.70;;;;;;;11.74;69.95;99501.34;347526;28;1244;-79
2023/03/21 00:23:37;;;;;;;225.88;86.45;;;;;;;11.75;69.66;99498.66;346143;28;1418;-79
2023/03/21 00:23:47;;;;;;;228.52;87.53;;;;;;;11.72;69.48;99500.56;347775;28;1430;-79
2023/03/21 00:23:58;;;;;;;227.60;86.67;;;;;;;11.71;69.58;99491.00;350335;28;1203;-79
2023/03/21 00:24:09;;;;;;;226.38;86.20;;;;;;;11.72;69.38;99493.56;349773;28;1341;-79
2023/03/21 00:24:20;;;;;;;226.73;85.43;;;;;;;11.72;68.87;99497.94;350154;28;1495;-79
2023/03/21 00:24:31;;;;;;;232.05;86.97;;;;;;;11.72;68.62;99497.94;349023;28;891;-79
2023/03/21 00:24:41;;;;;;;228.03;86.40;;;;;;;11.72;68.98;99493.56;347332;28;1320;-79
2023/03/21 00:24:52;;;;;;;224.82;85.00;;;;;;;11.71;68.72;99496.25;348717;28;1461;-79
2023/03/21 00:25:03;;;;;;;227.80;85.93;;;;;;;11.76;68.72;99496.88;348800;28;1200;-79
2023/03/21 00:25:14;;;;;;;229.93;87.07;;;;;;;11.71;68.73;99491.88;347590;28;1220;-79
2023/03/21 00:25:24;;;;;;;235.10;88.60;;;;;;;11.78;68.64;99505.56;347563;28;1345;-79
2023/03/21 00:25:34;;;;;;;227.50;87.18;;;;;;;11.73;69.06;99495.25;348872;28;1268;-79
2023/03/21 00:25:45;;;;;;;225.93;87.17;;;;;;;11.74;69.36;99493.50;347520;28;1311;-79
2023/03/21 00:25:56;;;;;;;220.48;85.38;;;;;;;11.74;69.84;99496.09;346095;28;1252;-79
2023/03/21 00:26:08;;;;;;;224.60;86.70;;;;;;;11.72;69.85;99492.72;346084;28;1307;-80
2023/03/21 00:26:21;;;;;;;217.45;84.05;;;;;;;11.75;70.11;99503.06;348054;28;5141;-79
2023/03/21 00:26:32;;;;;;;214.40;83.13;;;;;;;11.74;69.58;99501.34;347499;28;1439;-79
2023/03/21 00:26:42;;;;;;;212.80;82.53;;;;;;;11.70;68.93;99494.59;346295;28;1284;-79
2023/03/21 00:26:53;;;;;;;218.90;82.67;;;;;;;11.69;70.06;99493.72;345951;28;1219;-79
2023/03/21 00:27:03;;;;;;;221.95;82.90;;;;;;;11.70;70.83;99494.59;344949;28;1231;-79
2023/03/21 00:27:14;;;;;;;232.50;86.77;;;;;;;11.65;70.99;99498.28;343545;28;1006;-79
2023/03/21 00:27:24;;;;;;;234.80;89.43;;;;;;;11.70;71.32;99500.66;344641;28;1334;-79
2023/03/21 00:27:35;;;;;;;236.80;90.23;;;;;;;11.70;71.29;99494.59;342155;28;1226;-79
2023/03/21 00:27:46;;;;;;;233.95;87.22;;;;;;;11.65;71.50;99493.03;344772;28;1319;-79
2023/03/21 00:27:56;;;;;;;225.05;84.60;;;;;;;11.69;71.36;99498.13;344785;28;1280;-79
2023/03/21 00:28:06;;;;;;;232.73;87.00;;;;;;;11.66;71.43;99489.50;341863;28;1199;-79
2023/03/21 00:28:17;;;;;;;223.63;85.93;;;;;;;11.66;71.55;99491.25;342185;28;1318;-79
2023/03/21 00:28:27;;;;;;;228.23;88.03;;;;;;;11.66;70.18;99489.50;336759;29;1340;-80
2023/03/21 00:28:39;;;;;;;226.13;86.50;;;;;;;11.69;70.38;99492.88;340216;28;1153;-79
2023/03/21 00:28:49;;;;;;;232.18;88.93;;;;;;;11.65;70.21;99492.19;342213;28;1428;-79
2023/03/21 00:29:00;;;;;;;233.83;88.60;;;;;;;11.63;69.81;99481.75;343716;28;1265;-79
2023/03/21 00:29:10;;;;;;;234.93;89.43;;;;;;;11.63;69.93;99494.88;341833;28;1199;-80
2023/03/21 00:29:21;;;;;;;231.60;88.07;;;;;;;11.63;70.22;99486.16;343151;28;1149;-79
2023/03/21 00:29:31;;;;;;;229.03;87.13;;;;;;;11.63;70.77;99489.63;343515;28;1131;-79
2023/03/21 00:29:42;;;;;;;224.48;84.85;;;;;;;11.64;71.30;99491.31;339418;29;1198;-79
2023/03/21 00:29:52;;;;;;;231.37;87.57;;;;;;;11.67;71.55;99495.56;338936;29;1179;-79
2023/03/21 00:30:04;;;;;;;230.25;88.68;;;;;;;11.65;70.88;99490.41;343386;28;949;-79
2023/03/21 00:30:15;;;;;;;229.45;88.68;;;;;;;11.62;71.34;99485.31;340944;29;845;-79
2023/03/21 00:30:25;;;;;;;226.25;85.50;;;;;;;11.62;70.67;99487.94;341616;28;1275;-79
2023/03/21 00:30:35;;;;;;;225.15;84.55;;;;;;;11.63;70.29;99487.00;340146;28;1334;-80
2023/03/21 00:30:47;;;;;;;226.93;84.83;;;;;;;11.63;70.38;99484.38;338153;29;1254;-79
2023/03/21 00:30:58;;;;;;;223.23;85.85;;;;;;;11.64;70.20;99490.47;337003;29;890;-79
2023/03/21 00:31:08;;;;;;;225.97;87.37;;;;;;;11.64;70.45;99482.63;336486;29;1401;-79
2023/03/21 00:31:19;;;;;;;228.23;87.45;;;;;;;11.63;70.81;99483.53;335337;29;1634;-79
2023/03/21 00:31:30;;;;;;;230.35;86.35;;;;;;;11.63;70.28;99494.88;334252;29;1366;-79
2023/03/21 00:31:40;;;;;;;229.50;85.80;;;;;;;11.64;70.78;99491.31;337916;29;1954;-79
2023/03/21 00:31:51;;;;;;;225.17;86.23;;;;;;;11.63;71.24;99492.25;335592;29;1032;-79
2023/03/21 00:32:01;;;;;;;227.03;86.83;;;;;;;11.61;70.50;99486.22;335669;29;1129;-79
2023/03/21 00:32:11;;;;;;;227.00;86.72;;;;;;;11.60;71.00;99489.78;335593;29;1052;-79
2023/03/21 00:32:22;;;;;;;231.40;87.60;;;;;;;11.60;71.69;99487.16;332947;29;1320;-79
2023/03/21 00:32:33;;;;;;;230.75;87.80;;;;;;;11.60;70.50;99484.53;332869;29;1369;-79
2023/03/21 00:32:45;;;;;;;228.73;86.75;;;;;;;11.61;69.63;99491.47;330547;29;824;-79
2023/03/21 00:32:55;;;;;;;226.88;84.82;;;;;;;11.62;69.78;99489.69;331892;29;1745;-79
2023/03/21 00:33:06;;;;;;;229.75;84.57;;;;;;;11.61;70.79;99485.38;327827;29;1327;-79
2023/03/21 00:33:19;;;;;;;232.33;85.53;;;;;;;11.61;70.33;99485.38;324390;30;1342;-79
2023/03/21 00:33:30;;;;;;;232.27;86.70;;;;;;;11.60;69.68;99488.91;326766;30;5194;-78
2023/03/21 00:33:40;;;;;;;230.25;86.85;;;;;;;11.62;70.05;99487.94;326452;30;2094;-78
2023/03/21 00:33:51;;;;;;;226.23;86.32;;;;;;;11.59;69.83;99482.84;324659;30;1668;-79
2023/03/21 00:34:01;;;;;;;232.90;87.40;;;;;;;11.59;69.48;99487.22;323287;30;1201;-79
2023/03/21 00:34:12;;;;;;;232.00;85.75;;;;;;;11.65;69.54;99492.19;325798;30;872;-79
2023/03/21 00:34:22;;;;;;;234.87;84.93;;;;;;;11.64;69.21;99491.31;325387;30;1217;-79
2023/03/21 00:34:33;;;;;;;232.13;84.77;;;;;;;11.64;69.13;99487.84;320272;30;1251;-79
2023/03/21 00:34:43;;;;;;;242.70;88.03;;;;;;;11.61;69.25;99488.00;316151;31;1235;-79
2023/03/21 00:34:54;;;;;;;242.05;90.22;;;;;;;11.65;69.46;99489.56;316072;30;1840;-79
2023/03/21 00:35:04;;;;;;;245.20;92.80;;;;;;;11.64;69.13;99485.25;314929;31;2018;-79
2023/03/21 00:35:15;;;;;;;240.48;91.95;;;;;;;11.65;69.23;99490.41;315317;31;1053;-79
2023/03/21 00:35:25;;;;;;;242.50;90.67;;;;;;;11.63;69.03;99476.53;313189;31;2032;-79
2023/03/21 00:35:36;;;;;;;239.23;87.57;;;;;;;11.62;69.03;99477.44;311799;31;2220;-79
2023/03/21 00:35:50;;;;;;;240.47;87.57;;;;;;;11.65;68.90;99482.53;311741;31;1264;-79
2023/03/21 00:36:01;;;;;;;230.10;85.93;;;;;;;11.64;69.52;99474.75;309489;31;1551;-79
2023/03/21 00:36:12;;;;;;;226.80;85.47;;;;;;;11.68;70.04;99483.31;312631;31;1852;-79
2023/03/21 00:36:24;;;;;;;225.75;84.95;;;;;;;11.64;70.08;99475.59;308643;31;1263;-79
2023/03/21 00:36:35;;;;;;;231.30;85.95;;;;;;;11.64;70.81;99478.22;306530;31;1848;-79
2023/03/21 00:36:45;;;;;;;234.87;86.47;;;;;;;11.65;70.57;99482.53;302160;32;1244;-79
2023/03/21 00:36:56;;;;;;;235.45;87.63;;;;;;;11.62;69.98;99481.84;301308;32;1988;-79
2023/03/21 00:37:07;;;;;;;240.40;89.40;;;;;;;11.62;69.41;99487.94;297772;32;2545;-79
2023/03/21 00:37:18;;;;;;;239.50;89.15;;;;;;;11.59;69.38;99474.97;294434;32;2721;-79
2023/03/21 00:37:28;;;;;;;230.13;86.97;;;;;;;11.61;69.70;99480.13;300185;32;1258;-79
2023/03/21 00:37:39;;;;;;;236.07;89.00;;;;;;;11.55;69.97;99480.44;297271;32;3049;-79
2023/03/21 00:37:50;;;;;;;239.82;89.90;;;;;;;11.57;70.04;99479.44;295524;32;2601;-79
2023/03/21 00:38:01;;;;;;;252.63;92.93;;;;;;;11.54;70.11;99473.47;299471;33;1218;-79
2023/03/21 00:38:11;;;;;;;236.88;89.78;;;;;;;11.54;69.98;99473.47;297574;32;2700;-79
2023/03/21 00:38:22;;;;;;;235.70;88.87;;;;;;;11.53;69.80;99475.25;299694;32;2200;-79
2023/03/21 00:38:33;;;;;;;233.18;87.18;;;;;;;11.55;69.47;99478.66;298498;32;1736;-79
2023/03/21 00:38:43;;;;;;;241.27;90.38;;;;;;;11.54;69.91;99474.34;297147;33;1135;-79
2023/03/21 00:38:54;;;;;;;246.05;92.32;;;;;;;11.55;70.07;99473.41;294532;33;2585;-79
2023/03/21 00:39:05;;;;;;;251.33;94.10;;;;;;;11.56;69.75;99472.50;290895;33;2612;-79
2023/03/21 00:39:15;;;;;;;252.60;94.03;;;;;;;11.55;69.84;99472.56;289316;34;940;-79
2023/03/21 00:39:26;;;;;;;259.37;96.77;;;;;;;11.57;69.75;99476.81;288858;33;3627;-78
2023/03/21 00:39:36;;;;;;;252.50;94.63;;;;;;;11.57;70.67;99474.19;288394;33;3328;-79
2023/03/21 00:39:48;;;;;;;250.73;94.00;;;;;;;11.54;70.76;99469.09;286349;34;1352;-79
2023/03/21 00:39:58;;;;;;;245.43;92.88;;;;;;;11.58;70.75;99478.50;284399;34;1375;-79
2023/03/21 00:40:09;;;;;;;245.70;92.00;;;;;;;11.58;71.00;99475.88;281770;34;4984;-79
2023/03/21 00:40:20;;;;;;;245.82;92.46;;;;;;;11.58;71.76;99475.88;279754;34;3951;-79
2023/03/21 00:40:30;;;;;;;243.10;90.77;;;;;;;11.57;71.09;99474.19;281876;35;889;-78
2023/03/21 00:40:40;;;;;;;249.60;91.70;;;;;;;11.58;70.81;99473.28;278422;35;3155;-80
2023/03/21 00:40:51;;;;;;;251.77;92.32;;;;;;;11.59;70.30;99472.34;276856;35;2781;-79
2023/03/21 00:41:05;;;;;;;257.03;94.73;;;;;;;11.60;70.57;99481.91;275606;35;1251;-79
2023/03/21 00:41:16;;;;;;;254.07;97.13;;;;;;;11.60;70.15;99475.81;271183;36;4918;-79
2023/03/21 00:41:26;;;;;;;249.40;95.83;;;;;;;11.59;70.37;99469.72;272398;35;3407;-79
2023/03/21 00:41:36;;;;;;;247.25;91.93;;;;;;;11.60;70.39;99476.66;269140;36;5246;-78
2023/03/21 00:41:48;;;;;;;252.13;93.03;;;;;;;11.59;70.51;99466.25;265606;37;1265;-80
2023/03/21 00:41:59;;;;;;;242.38;90.43;;;;;;;11.60;70.37;99478.44;262627;37;1540;-79
2023/03/21 00:42:09;;;;;;;234.55;88.95;;;;;;;11.58;70.53;99478.50;261745;37;6462;-79
2023/03/21 00:42:20;;;;;;;228.83;88.43;;;;;;;11.57;70.69;99479.44;259254;37;7467;-79
2023/03/21 00:42:30;;;;;;;232.53;89.13;;;;;;;11.59;71.01;99479.34;258497;38;1266;-79
2023/03/21 00:42:41;;;;;;;234.27;89.57;;;;;;;11.60;70.77;99481.06;256002;37;6272;-79
2023/03/21 00:44:27;;;;;;;198.02;77.38;;;;;;;11.60;71.36;99484.53;2502625;27;20489;-79
2023/03/21 00:44:39;;;;;;;206.67;81.17;;;;;;;11.58;70.83;99481.13;352367;28;1270;-78
2023/03/21 00:44:49;;;;;;;208.80;82.68;;;;;;;11.58;70.80;99475.88;349129;28;871;-78
2023/03/21 00:45:00;;;;;;;214.98;84.82;;;;;;;11.58;70.92;99483.75;347652;28;793;-78
2023/03/21 00:45:11;;;;;;;220.30;84.13;;;;;;;11.58;71.26;99478.50;347444;28;1556;-80
2023/03/21 00:45:21;;;;;;;225.63;84.45;;;;;;;11.60;70.94;99478.44;347450;28;1382;-77
2023/03/21 00:45:31;;;;;;;226.77;83.33;;;;;;;11.57;70.93;99478.59;347515;28;829;-77
2023/03/21 00:45:43;;;;;;;226.70;83.07;;;;;;;11.59;70.86;99479.34;346161;28;1075;-77
2023/03/21 00:45:53;;;;;;;222.93;82.53;;;;;;;11.60;71.24;99478.44;347492;28;1299;-77
2023/03/21 00:46:04;;;;;;;221.03;83.30;;;;;;;11.60;71.30;99473.19;348926;28;886;-77
2023/03/21 00:46:15;;;;;;;225.60;84.80;;;;;;;11.59;71.16;99468.88;347547;28;839;-78
2023/03/21 00:46:25;;;;;;;227.23;84.22;;;;;;;11.61;70.73;99472.28;346034;28;1350;-78
2023/03/21 00:46:35;;;;;;;228.93;84.90;;;;;;;11.61;70.69;99475.75;348004;28;1220;-78
2023/03/21 00:46:46;;;;;;;227.07;84.75;;;;;;;11.62;70.85;99476.59;347449;28;904;-78
2023/03/21 00:46:57;;;;;;;233.43;87.20;;;;;;;11.61;70.43;99475.75;347489;28;1224;-78
2023/03/21 00:47:08;;;;;;;233.05;87.07;;;;;;;11.60;70.48;99479.28;344704;28;1281;-80
2023/03/21 00:47:18;;;;;;;230.95;87.30;;;;;;;11.60;70.26;99478.44;343698;28;1438;-79
2023/03/21 00:47:29;;;;;;;226.27;84.70;;;;;;;11.58;70.25;99470.66;342042;28;1207;-79
2023/03/21 00:47:39;;;;;;;225.82;85.18;;;;;;;11.62;69.95;99487.94;344756;28;1222;-79
2023/03/21 00:47:50;;;;;;;225.73;84.63;;;;;;;11.59;69.81;99477.59;347358;28;1228;-79
2023/03/21 00:48:00;;;;;;;227.77;86.15;;;;;;;11.58;69.48;99473.28;346015;28;1356;-79
2023/03/21 00:48:11;;;;;;;227.95;84.35;;;;;;;11.58;69.41;99465.41;343204;28;1247;-79
2023/03/21 00:48:22;;;;;;;232.20;84.70;;;;;;;11.55;69.59;99465.53;346364;28;1279;-79
2023/03/21 00:48:32;;;;;;;231.50;85.73;;;;;;;11.56;70.23;99472.50;346182;28;1129;-79
2023/03/21 00:48:43;;;;;;;238.25;87.72;;;;;;;11.58;70.42;99475.88;347654;28;1318;-80
2023/03/21 00:48:53;;;;;;;238.53;88.47;;;;;;;11.56;70.53;99467.25;347420;28;892;-80
2023/03/21 00:49:03;;;;;;;235.10;86.37;;;;;;;11.60;71.21;99474.03;348562;28;1297;-79
2023/03/21 00:49:14;;;;;;;230.43;86.27;;;;;;;11.57;71.61;99468.94;344806;28;1384;-79
2023/03/21 00:49:24;;;;;;;228.27;84.90;;;;;;;11.56;70.42;99462.00;344661;28;1219;-79
2023/03/21 00:49:37;;;;;;;229.18;87.03;;;;;;;11.55;70.08;99464.69;347638;28;1342;-78
2023/03/21 00:49:47;;;;;;;223.60;85.22;;;;;;;11.54;70.12;99474.34;347522;28;1486;-78
2023/03/21 00:49:58;;;;;;;220.68;84.13;;;;;;;11.54;70.47;99463.84;347579;28;1335;-79
2023/03/21 00:50:09;;;;;;;229.90;85.30;;;;;;;11.52;70.08;99468.31;348625;28;1207;-79
2023/03/21 00:50:19;;;;;;;235.95;87.18;;;;;;;11.52;70.32;99465.69;346957;28;1230;-79
2023/03/21 00:50:31;;;;;;;236.13;87.20;;;;;;;11.55;70.27;99468.16;342021;28;1376;-79
2023/03/21 00:50:44;;;;;;;227.40;85.40;;;;;;;11.50;70.42;99467.53;343350;28;1316;-79
2023/03/21 00:50:55;;;;;;;221.57;84.78;;;;;;;11.51;70.79;99464.00;341294;28;1451;-79
2023/03/21 00:51:26;;;;;;;223.23;84.85;;;;;;;11.56;70.88;99467.25;342210;28;1029;-79
2023/03/21 00:51:37;;;;;;;217.40;81.45;;;;;;;11.53;71.28;99467.38;339050;29;1096;-79
2023/03/21 00:51:50;;;;;;;220.07;83.13;;;;;;;11.51;72.00;99458.75;342023;28;1363;-79
2023/03/21 00:52:00;;;;;;;222.73;84.38;;;;;;;11.51;71.84;99463.13;339678;29;834;-79
2023/03/21 00:52:11;;;;;;;225.03;85.20;;;;;;;11.50;71.64;99459.66;339179;29;1210;-80
2023/03/21 00:52:21;;;;;;;229.90;85.40;;;;;;;11.52;71.93;99460.44;339785;28;1249;-79
2023/03/21 00:52:32;;;;;;;238.13;86.40;;;;;;;11.54;71.77;99465.63;337063;28;1357;-79
2023/03/21 00:52:42;;;;;;;240.52;86.68;;;;;;;11.50;71.47;99464.91;338088;29;1255;-79
2023/03/21 00:52:53;;;;;;;237.83;86.00;;;;;;;11.52;71.02;99463.06;339228;28;1123;-79
2023/03/21 00:53:04;;;;;;;234.55;85.78;;;;;;;11.52;70.45;99459.59;336615;29;1319;-79
2023/03/21 00:53:14;;;;;;;233.95;85.55;;;;;;;11.55;70.55;99455.06;332850;29;1919;-79
2023/03/21 00:53:25;;;;;;;233.65;87.18;;;;;;;11.56;70.18;99469.03;336398;29;1303;-79
2023/03/21 00:53:36;;;;;;;233.75;87.93;;;;;;;11.55;70.08;99460.31;334910;29;1318;-79
2023/03/21 00:53:46;;;;;;;231.17;87.33;;;;;;;11.57;70.35;99468.94;337059;29;1190;-79
2023/03/21 00:53:57;;;;;;;234.00;86.47;;;;;;;11.54;70.51;99457.75;335436;29;1284;-79
2023/03/21 00:54:08;;;;;;;234.37;85.60;;;;;;;11.55;70.19;99464.69;333516;29;1215;-79
2023/03/21 00:54:19;;;;;;;233.80;85.07;;;;;;;11.55;70.14;99457.69;335578;29;1309;-79
2023/03/21 00:54:29;;;;;;;231.27;84.37;;;;;;;11.56;70.41;99455.91;334150;29;1216;-79
2023/03/21 00:54:39;;;;;;;230.80;84.32;;;;;;;11.54;70.77;99458.59;331523;29;1999;-79
2023/03/21 00:54:50;;;;;;;227.83;84.93;;;;;;;11.55;70.27;99460.31;331665;29;1607;-79
2023/03/21 00:55:01;;;;;;;232.85;86.10;;;;;;;11.52;70.07;99457.81;329388;29;1284;-79
2023/03/21 00:55:15;;;;;;;241.07;88.80;;;;;;;11.53;71.01;99451.66;329151;29;1868;-79
2023/03/21 00:55:25;;;;;;;233.75;85.78;;;;;;;11.50;70.96;99446.56;331396;29;1969;-79
2023/03/21 00:55:37;;;;;;;228.00;85.20;;;;;;;11.54;71.38;99463.00;330884;29;1320;-79
2023/03/21 00:55:48;;;;;;;228.75;85.63;;;;;;;11.52;71.51;99456.97;330474;29;1345;-79
2023/03/21 00:55:58;;;;;;;227.10;85.97;;;;;;;11.51;71.31;99457.91;330462;29;1309;-79
2023/03/21 00:56:10;;;;;;;230.77;86.78;;;;;;;11.54;71.38;99463.00;329383;29;1070;-79